createdAt,value
2022-10-26T00:01:08.091Z,99194.53
2022-10-26T00:03:36.659Z,99192.91
2022-10-26T00:06:09.395Z,99186.19
2022-10-26T00:08:37.093Z,99190.22
2022-10-26T00:11:05.073Z,99195.94
2022-10-26T00:13:32.614Z,99192.63
2022-10-26T00:18:31.935Z,99194.72
2022-10-26T00:21:04.250Z,99200.81
2022-10-26T00:23:32.044Z,99207.44
2022-10-26T00:25:59.702Z,99209.75
2022-10-26T00:28:27.233Z,99209.94
2022-10-26T00:30:54.342Z,99206.38
2022-10-26T00:33:21.663Z,99209.09
2022-10-26T00:35:53.266Z,99205.16
2022-10-26T00:38:20.587Z,99213.06
2022-10-26T00:40:48.546Z,99207.31
2022-10-26T00:43:21.299Z,99202.41
2022-10-26T00:45:50.610Z,99214.47
2022-10-26T00:48:23.120Z,99209.13
2022-10-26T00:50:51.881Z,99213.41
2022-10-26T00:53:19.733Z,99213.00
2022-10-26T00:55:49.063Z,99213.25
2022-10-26T00:58:17.158Z,99201.47
2022-10-26T01:00:44.407Z,99205.44
2022-10-26T01:03:11.838Z,99208.16
2022-10-26T01:05:41.743Z,99201.97
2022-10-26T01:08:09.568Z,99201.75
2022-10-26T01:10:38.340Z,99203.56
2022-10-26T01:13:05.922Z,99201.09
2022-10-26T01:15:53.706Z,99203.56
2022-10-26T01:18:26.960Z,99205.31
2022-10-26T01:21:03.108Z,99201.50
2022-10-26T01:23:45.572Z,99199.50
2022-10-26T01:26:27.466Z,99199.63
2022-10-26T01:29:22.473Z,99196.75
2022-10-26T01:32:09.630Z,99207.94
2022-10-26T01:34:44.949Z,99202.03
2022-10-26T01:37:15.096Z,99197.31
2022-10-26T01:40:00.360Z,99195.19
2022-10-26T01:42:28.516Z,99197.41
2022-10-26T01:45:05.337Z,99196.84
2022-10-26T01:47:34.022Z,99189.44
2022-10-26T01:50:03.014Z,99192.25
2022-10-26T01:52:30.057Z,99185.13
2022-10-26T01:55:07.690Z,99189.94
2022-10-26T01:57:36.150Z,99191.28
2022-10-26T02:00:12.821Z,99183.06
2022-10-26T02:02:55.684Z,99180.34
2022-10-26T02:05:41.395Z,99191.00
2022-10-26T02:08:34.903Z,99186.47
2022-10-26T02:11:07.922Z,99179.97
2022-10-26T02:13:47.449Z,99178.78
2022-10-26T02:16:43.968Z,99176.66
2022-10-26T02:19:25.032Z,99174.44
2022-10-26T02:21:57.462Z,99178.34
2022-10-26T02:24:25.354Z,99184.66
2022-10-26T02:26:53.280Z,99186.09
2022-10-26T02:29:20.749Z,99181.94
2022-10-26T02:31:48.989Z,99179.66
2022-10-26T02:34:19.846Z,99179.31
2022-10-26T02:36:47.810Z,99184.53
2022-10-26T02:39:16.928Z,99185.25
2022-10-26T02:41:44.333Z,99194.31
2022-10-26T02:44:20.548Z,99197.88
2022-10-26T02:46:48.041Z,99195.00
2022-10-26T02:49:15.311Z,99198.06
2022-10-26T02:52:04.856Z,99202.59
2022-10-26T02:54:50.694Z,99203.88
2022-10-26T02:57:21.091Z,99213.47
2022-10-26T02:59:49.414Z,99208.81
2022-10-26T03:02:17.823Z,99209.41
2022-10-26T03:04:44.989Z,99215.09
2022-10-26T03:07:12.253Z,99209.28
2022-10-26T03:09:39.232Z,99206.16
2022-10-26T03:12:06.233Z,99204.53
2022-10-26T03:14:33.498Z,99205.56
2022-10-26T03:17:00.518Z,99197.25
2022-10-26T03:19:27.506Z,99204.47
2022-10-26T03:21:54.845Z,99205.56
2022-10-26T03:24:21.807Z,99208.16
2022-10-26T03:26:48.876Z,99207.53
2022-10-26T03:29:16.195Z,99216.34
2022-10-26T03:31:43.153Z,99213.84
2022-10-26T03:34:10.116Z,99216.44
2022-10-26T03:36:37.399Z,99213.97
2022-10-26T03:39:04.385Z,99217.16
2022-10-26T03:41:31.358Z,99221.94
2022-10-26T03:43:58.646Z,99227.16
2022-10-26T03:46:25.670Z,99223.31
2022-10-26T03:48:52.700Z,99229.72
2022-10-26T03:51:19.993Z,99226.78
2022-10-26T03:53:47.032Z,99230.59
2022-10-26T03:56:13.985Z,99235.81
2022-10-26T03:58:41.251Z,99229.53
2022-10-26T04:01:08.287Z,99230.53
2022-10-26T04:03:35.559Z,99234.59
2022-10-26T04:06:03.214Z,99232.09
2022-10-26T04:08:30.269Z,99233.50
2022-10-26T04:10:59.891Z,99235.88
2022-10-26T04:13:29.433Z,99223.97
2022-10-26T04:15:56.498Z,99228.38
2022-10-26T04:18:23.963Z,99228.50
2022-10-26T04:20:50.971Z,99229.44
2022-10-26T04:23:19.369Z,99230.25
2022-10-26T04:25:47.000Z,99224.19
2022-10-26T04:28:14.796Z,99227.62
2022-10-26T04:30:41.809Z,99223.16
2022-10-26T04:33:09.716Z,99216.63
2022-10-26T04:35:36.750Z,99226.97
2022-10-26T04:38:06.443Z,99218.41
2022-10-26T04:40:34.361Z,99214.00
2022-10-26T04:43:01.683Z,99219.28
2022-10-26T04:45:30.833Z,99220.09
2022-10-26T04:48:10.170Z,99212.53
2022-10-26T04:50:37.625Z,99218.00
2022-10-26T04:53:08.937Z,99213.47
2022-10-26T04:55:36.357Z,99216.09
2022-10-26T04:58:03.819Z,99219.28
2022-10-26T05:00:32.960Z,99214.88
2022-10-26T05:03:05.194Z,99208.25
2022-10-26T05:05:34.390Z,99208.47
2022-10-26T05:08:01.499Z,99210.97
2022-10-26T05:10:28.762Z,99206.78
2022-10-26T05:12:57.815Z,99214.13
2022-10-26T05:15:24.958Z,99206.03
2022-10-26T05:17:57.424Z,99208.19
2022-10-26T05:20:31.788Z,99216.59
2022-10-26T05:22:59.224Z,99226.19
2022-10-26T05:25:27.949Z,99225.13
2022-10-26T05:28:04.157Z,99224.91
2022-10-26T05:30:31.833Z,99234.53
2022-10-26T05:33:00.660Z,99230.47
2022-10-26T05:35:28.018Z,99234.62
2022-10-26T05:37:55.363Z,99239.13
2022-10-26T05:40:22.725Z,99235.22
2022-10-26T05:42:51.132Z,99233.06
2022-10-26T05:45:19.070Z,99244.50
2022-10-26T05:47:46.734Z,99238.09
2022-10-26T05:50:14.296Z,99239.19
2022-10-26T05:52:41.925Z,99243.12
2022-10-26T05:55:09.839Z,99243.03
2022-10-26T05:57:37.743Z,99243.44
2022-10-26T06:00:09.384Z,99249.75
2022-10-26T06:02:55.457Z,99250.59
2022-10-26T06:05:26.806Z,99260.03
2022-10-26T06:07:54.164Z,99252.63
2022-10-26T06:10:21.422Z,99255.13
2022-10-26T06:12:49.254Z,99265.12
2022-10-26T06:15:19.903Z,99267.03
2022-10-26T06:17:53.802Z,99259.63
2022-10-26T06:20:30.554Z,99269.25
2022-10-26T06:23:36.273Z,99273.41
2022-10-26T06:26:26.720Z,99273.44
2022-10-26T06:29:01.630Z,99283.59
2022-10-26T06:31:29.124Z,99283.03
2022-10-26T06:33:59.109Z,99281.62
2022-10-26T06:36:28.292Z,99284.37
2022-10-26T06:39:07.369Z,99278.06
2022-10-26T06:41:35.679Z,99281.62
2022-10-26T06:44:04.253Z,99272.22
2022-10-26T06:46:34.147Z,99281.25
2022-10-26T06:49:23.599Z,99280.84
2022-10-26T06:51:59.133Z,99283.50
2022-10-26T06:54:31.056Z,99285.88
2022-10-26T06:56:58.602Z,99288.38
2022-10-26T06:59:47.314Z,99290.31
2022-10-26T07:02:15.234Z,99298.34
2022-10-26T07:04:43.009Z,99298.34
2022-10-26T07:07:12.680Z,99296.38
2022-10-26T07:09:39.963Z,99289.59
2022-10-26T07:12:07.388Z,99294.31
2022-10-26T07:14:34.490Z,99299.16
2022-10-26T07:17:02.072Z,99298.81
2022-10-26T07:19:29.073Z,99302.41
2022-10-26T07:21:57.158Z,99305.56
2022-10-26T07:24:24.579Z,99316.09
2022-10-26T07:26:54.223Z,99311.84
2022-10-26T07:29:25.775Z,99311.69
2022-10-26T07:34:21.281Z,99311.41
2022-10-26T07:36:48.357Z,99313.59
2022-10-26T07:39:18.872Z,99316.09
2022-10-26T07:41:47.171Z,99324.72
2022-10-26T07:44:16.896Z,99321.34
2022-10-26T07:46:44.275Z,99324.53
2022-10-26T07:49:11.342Z,99319.38
2022-10-26T07:51:38.527Z,99315.87
2022-10-26T07:54:05.898Z,99311.78
2022-10-26T07:56:32.917Z,99308.97
2022-10-26T07:58:59.913Z,99312.78
2022-10-26T08:01:27.442Z,99316.19
2022-10-26T08:03:55.383Z,99319.25
2022-10-26T08:06:22.898Z,99326.78
2022-10-26T08:08:50.538Z,99327.97
2022-10-26T08:11:18.000Z,99326.00
2022-10-26T08:13:45.023Z,99333.84
2022-10-26T08:16:12.444Z,99328.66
2022-10-26T08:18:39.709Z,99342.72
2022-10-26T08:21:11.660Z,99338.25
2022-10-26T08:23:40.073Z,99340.41
2022-10-26T08:26:07.855Z,99342.66
2022-10-26T08:28:34.921Z,99343.00
2022-10-26T08:31:02.218Z,99344.63
2022-10-26T08:33:29.251Z,99338.50
2022-10-26T08:36:00.183Z,99334.97
2022-10-26T08:38:27.743Z,99328.78
2022-10-26T08:40:57.026Z,99331.66
2022-10-26T08:43:35.751Z,99340.47
2022-10-26T08:46:30.109Z,99349.16
2022-10-26T08:49:05.242Z,99350.53
2022-10-26T08:51:35.602Z,99348.47
2022-10-26T08:54:05.670Z,99353.09
2022-10-26T08:56:40.051Z,99347.38
2022-10-26T08:59:26.805Z,99350.56
2022-10-26T09:01:54.463Z,99351.22
2022-10-26T09:04:29.756Z,99346.94
2022-10-26T09:07:27.205Z,99346.00
2022-10-26T09:10:16.846Z,99342.31
2022-10-26T09:12:49.355Z,99355.31
2022-10-26T09:15:54.219Z,99348.06
2022-10-26T09:18:36.003Z,99356.25
2022-10-26T09:21:13.108Z,99353.75
2022-10-26T09:23:54.405Z,99357.53
2022-10-26T09:26:39.206Z,99366.44
2022-10-26T09:29:12.589Z,99366.09
2022-10-26T09:31:45.612Z,99360.41
2022-10-26T09:34:33.408Z,99380.69
2022-10-26T09:37:00.765Z,99373.72
2022-10-26T09:39:38.920Z,99372.62
2022-10-26T09:42:19.388Z,99376.69
2022-10-26T09:44:55.057Z,99368.25
2022-10-26T09:47:38.673Z,99373.47
2022-10-26T09:50:32.568Z,99382.88
2022-10-26T09:52:59.628Z,99386.78
2022-10-26T09:55:27.861Z,99388.66
2022-10-26T09:57:57.480Z,99394.06
2022-10-26T10:00:25.734Z,99394.41
2022-10-26T10:02:57.591Z,99397.19
2022-10-26T10:08:25.618Z,99392.22
2022-10-26T10:11:10.525Z,99399.03
2022-10-26T10:13:40.538Z,99391.53
2022-10-26T10:16:10.268Z,99393.28
2022-10-26T10:18:39.141Z,99401.22
2022-10-26T10:21:06.991Z,99398.59
2022-10-26T10:23:36.384Z,99399.47
2022-10-26T10:26:10.947Z,99393.75
2022-10-26T10:28:39.064Z,99396.22
2022-10-26T10:31:19.695Z,99388.63
2022-10-26T10:33:46.865Z,99389.59
2022-10-26T10:36:17.853Z,99392.56
2022-10-26T10:38:46.126Z,99394.50
2022-10-26T10:41:29.348Z,99390.16
2022-10-26T10:44:06.988Z,99384.47
2022-10-26T10:46:35.313Z,99380.69
2022-10-26T10:49:16.320Z,99387.47
2022-10-26T10:51:44.152Z,99382.84
2022-10-26T10:54:35.666Z,99380.56
2022-10-26T10:57:15.297Z,99374.47
2022-10-26T11:00:10.841Z,99375.50
2022-10-26T11:02:41.225Z,99379.97
2022-10-26T11:05:33.143Z,99377.28
2022-10-26T11:08:03.974Z,99373.34
2022-10-26T11:10:36.169Z,99373.81
2022-10-26T11:13:11.896Z,99362.59
2022-10-26T11:15:39.556Z,99368.19
2022-10-26T11:18:17.955Z,99360.91
2022-10-26T11:20:52.599Z,99363.75
2022-10-26T11:23:32.840Z,99363.09
2022-10-26T11:26:27.760Z,99359.63
2022-10-26T11:29:05.474Z,99358.81
2022-10-26T11:31:38.684Z,99351.34
2022-10-26T11:34:12.676Z,99347.47
2022-10-26T11:36:42.281Z,99351.75
2022-10-26T11:39:20.860Z,99348.62
2022-10-26T11:41:55.964Z,99346.63
2022-10-26T11:44:38.983Z,99343.63
2022-10-26T11:47:34.867Z,99345.66
2022-10-26T11:50:20.208Z,99348.91
2022-10-26T11:53:19.242Z,99344.59
2022-10-26T11:55:51.435Z,99350.69
2022-10-26T11:58:18.804Z,99354.06
2022-10-26T12:01:10.146Z,99347.59
2022-10-26T12:03:45.574Z,99347.56
2022-10-26T12:06:15.399Z,99350.56
2022-10-26T12:08:46.486Z,99351.34
2022-10-26T12:11:32.071Z,99355.56
2022-10-26T12:14:26.596Z,99353.94
2022-10-26T12:17:04.831Z,99352.63
2022-10-26T12:19:36.529Z,99350.34
2022-10-26T12:22:04.121Z,99351.69
2022-10-26T12:24:35.528Z,99343.72
2022-10-26T12:27:04.969Z,99352.34
2022-10-26T12:29:39.251Z,99357.47
2022-10-26T12:32:41.493Z,99348.19
2022-10-26T12:35:37.588Z,99344.22
2022-10-26T12:38:30.273Z,99341.38
2022-10-26T12:41:06.570Z,99341.06
2022-10-26T12:43:35.898Z,99336.38
2022-10-26T12:46:12.346Z,99335.03
2022-10-26T12:48:41.366Z,99329.16
2022-10-26T12:51:24.755Z,99335.50
2022-10-26T12:53:58.023Z,99332.09
2022-10-26T12:56:33.041Z,99332.22
2022-10-26T12:59:04.315Z,99333.06
2022-10-26T13:01:57.298Z,99330.41
2022-10-26T13:04:47.443Z,99332.41
2022-10-26T13:07:19.728Z,99331.88
2022-10-26T13:10:17.017Z,99330.28
2022-10-26T13:12:53.773Z,99333.53
2022-10-26T13:15:27.790Z,99326.06
2022-10-26T13:18:07.044Z,99330.56
2022-10-26T13:20:35.686Z,99336.38
2022-10-26T13:23:13.890Z,99330.72
2022-10-26T13:25:41.084Z,99328.63
2022-10-26T13:28:39.293Z,99324.81
2022-10-26T13:31:13.494Z,99333.62
2022-10-26T13:33:42.358Z,99333.47
2022-10-26T13:36:39.303Z,99339.91
2022-10-26T13:39:11.988Z,99330.16
2022-10-26T13:41:42.951Z,99332.97
2022-10-26T13:44:27.038Z,99334.78
2022-10-26T13:47:01.452Z,99342.06
2022-10-26T13:49:33.921Z,99335.56
2022-10-26T13:52:03.304Z,99344.34
2022-10-26T13:54:39.068Z,99347.03
2022-10-26T13:57:11.330Z,99347.53
2022-10-26T13:59:41.926Z,99341.25
2022-10-26T14:02:17.664Z,99343.91
2022-10-26T14:04:52.108Z,99345.87
2022-10-26T14:07:23.215Z,99349.84
2022-10-26T14:09:52.653Z,99344.53
2022-10-26T14:12:19.697Z,99346.19
2022-10-26T14:14:47.293Z,99346.56
2022-10-26T14:17:19.944Z,99350.34
2022-10-26T14:19:47.234Z,99349.84
2022-10-26T14:22:23.384Z,99345.72
2022-10-26T14:24:52.968Z,99344.87
2022-10-26T14:27:23.961Z,99345.03
2022-10-26T14:32:44.765Z,99347.38
2022-10-26T14:35:13.519Z,99355.25
2022-10-26T14:37:46.452Z,99347.47
2022-10-26T14:40:17.256Z,99351.91
2022-10-26T14:42:50.044Z,99354.19
2022-10-26T14:45:53.067Z,99353.69
2022-10-26T14:48:26.129Z,99357.69
2022-10-26T14:51:05.968Z,99368.75
2022-10-26T14:53:37.116Z,99369.41
2022-10-26T14:56:06.484Z,99368.53
2022-10-26T14:58:35.320Z,99360.75
2022-10-26T15:01:24.590Z,99359.56
2022-10-26T15:04:06.413Z,99366.31
2022-10-26T15:06:42.969Z,99359.16
2022-10-26T15:09:31.799Z,99363.63
2022-10-26T15:11:59.490Z,99365.56
2022-10-26T15:14:26.832Z,99371.94
2022-10-26T15:16:56.402Z,99365.31
2022-10-26T15:19:24.096Z,99371.06
2022-10-26T15:21:52.421Z,99368.69
2022-10-26T15:24:29.570Z,99365.81
2022-10-26T15:26:58.874Z,99372.91
2022-10-26T15:29:36.931Z,99374.41
2022-10-26T15:32:06.835Z,99372.69
2022-10-26T15:34:33.898Z,99370.91
2022-10-26T15:37:00.917Z,99370.34
2022-10-26T15:39:28.264Z,99377.38
2022-10-26T15:41:56.015Z,99367.72
2022-10-26T15:44:23.152Z,99372.66
2022-10-26T15:46:50.477Z,99380.06
2022-10-26T15:49:19.579Z,99375.81
2022-10-26T15:51:47.978Z,99379.28
2022-10-26T15:54:15.648Z,99375.66
2022-10-26T15:56:43.854Z,99377.63
2022-10-26T15:59:15.192Z,99381.22
2022-10-26T16:01:42.587Z,99388.31
2022-10-26T16:04:13.931Z,99385.16
2022-10-26T16:06:42.241Z,99376.25
2022-10-26T16:09:17.176Z,99389.06
2022-10-26T16:11:45.012Z,99386.72
2022-10-26T16:14:13.043Z,99393.28
2022-10-26T16:16:41.290Z,99393.88
2022-10-26T16:19:30.562Z,99400.81
2022-10-26T16:21:57.393Z,99400.97
2022-10-26T16:24:26.841Z,99400.56
2022-10-26T16:26:53.840Z,99406.97
2022-10-26T16:29:21.129Z,99406.13
2022-10-26T16:31:48.562Z,99406.44
2022-10-26T16:34:15.826Z,99417.69
2022-10-26T16:36:43.106Z,99419.47
2022-10-26T16:39:13.228Z,99414.47
2022-10-26T16:41:40.194Z,99422.37
2022-10-26T16:44:07.510Z,99420.84
2022-10-26T16:46:34.576Z,99419.47
2022-10-26T16:49:01.698Z,99426.97
2022-10-26T16:51:29.251Z,99429.22
2022-10-26T16:53:57.128Z,99428.38
2022-10-26T16:56:27.167Z,99428.94
2022-10-26T16:58:56.558Z,99424.78
2022-10-26T17:01:24.078Z,99433.66
2022-10-26T17:03:52.609Z,99436.28
2022-10-26T17:06:20.300Z,99423.94
2022-10-26T17:08:47.616Z,99428.94
2022-10-26T17:11:20.224Z,99438.09
2022-10-26T17:13:48.168Z,99438.69
2022-10-26T17:16:20.006Z,99438.69
2022-10-26T17:18:47.924Z,99437.97
2022-10-26T17:21:19.928Z,99444.84
2022-10-26T17:23:47.202Z,99457.31
2022-10-26T17:26:14.763Z,99450.41
2022-10-26T17:28:42.008Z,99452.87
2022-10-26T17:31:11.617Z,99459.94
2022-10-26T17:33:39.848Z,99458.97
2022-10-26T17:36:07.919Z,99458.00
2022-10-26T17:38:37.822Z,99463.44
2022-10-26T17:41:06.792Z,99465.50
2022-10-26T17:43:35.544Z,99468.13
2022-10-26T17:46:04.921Z,99471.19
2022-10-26T17:48:32.432Z,99483.13
2022-10-26T17:51:00.177Z,99487.72
2022-10-26T17:53:28.284Z,99486.78
2022-10-26T17:56:01.907Z,99488.16
2022-10-26T17:58:29.201Z,99486.66
2022-10-26T18:00:59.961Z,99487.78
2022-10-26T18:03:27.239Z,99489.00
2022-10-26T18:05:54.312Z,99490.28
2022-10-26T18:08:21.293Z,99486.56
2022-10-26T18:11:00.666Z,99481.69
2022-10-26T18:13:29.147Z,99486.56
2022-10-26T18:15:57.021Z,99484.09
2022-10-26T18:18:24.048Z,99487.41
2022-10-26T18:20:51.229Z,99486.41
2022-10-26T18:23:18.475Z,99485.69
2022-10-26T18:25:45.450Z,99494.12
2022-10-26T18:30:44.645Z,99484.81
2022-10-26T18:33:11.654Z,99481.75
2022-10-26T18:35:38.650Z,99488.00
2022-10-26T18:38:05.927Z,99475.13
2022-10-26T18:40:32.935Z,99483.37
2022-10-26T18:42:59.922Z,99491.00
2022-10-26T18:45:27.215Z,99492.34
2022-10-26T18:47:54.286Z,99499.00
2022-10-26T18:50:21.353Z,99500.38
2022-10-26T18:52:51.513Z,99501.78
2022-10-26T18:55:18.613Z,99494.69
2022-10-26T18:57:45.608Z,99502.16
2022-10-26T19:00:13.662Z,99494.62
2022-10-26T19:02:40.627Z,99500.56
2022-10-26T19:05:07.868Z,99501.81
2022-10-26T19:07:37.811Z,99511.31
2022-10-26T19:10:05.222Z,99518.25
2022-10-26T19:12:32.220Z,99523.25
2022-10-26T19:14:59.515Z,99529.47
2022-10-26T19:17:27.209Z,99532.22
2022-10-26T19:19:54.244Z,99528.78
2022-10-26T19:22:21.511Z,99534.56
2022-10-26T19:24:49.078Z,99537.44
2022-10-26T19:29:48.270Z,99551.34
2022-10-26T19:32:17.990Z,99556.47
2022-10-26T19:34:45.395Z,99558.25
2022-10-26T19:37:13.463Z,99550.38
2022-10-26T19:39:40.475Z,99552.81
2022-10-26T19:42:07.477Z,99557.81
2022-10-26T19:44:34.754Z,99566.78
2022-10-26T19:47:01.821Z,99569.09
2022-10-26T19:49:28.814Z,99563.84
2022-10-26T19:51:57.958Z,99559.69
2022-10-26T19:54:25.049Z,99559.25
2022-10-26T19:56:52.088Z,99574.53
2022-10-26T19:59:19.417Z,99579.72
2022-10-26T20:01:46.465Z,99587.38
2022-10-26T20:04:13.841Z,99591.78
2022-10-26T20:06:40.844Z,99590.94
2022-10-26T20:09:07.892Z,99593.34
2022-10-26T20:11:38.025Z,99586.09
2022-10-26T20:14:07.385Z,99588.97
2022-10-26T20:16:34.444Z,99597.09
2022-10-26T20:19:01.757Z,99594.84
2022-10-26T20:21:28.740Z,99600.22
2022-10-26T20:23:55.783Z,99595.81
2022-10-26T20:26:25.196Z,99596.75
2022-10-26T20:28:54.603Z,99602.00
2022-10-26T20:31:21.600Z,99609.63
2022-10-26T20:33:50.732Z,99611.66
2022-10-26T20:36:17.693Z,99598.66
2022-10-26T20:38:45.075Z,99599.84
2022-10-26T20:41:13.029Z,99600.44
2022-10-26T20:43:40.982Z,99600.44
2022-10-26T20:46:12.512Z,99608.06
2022-10-26T20:48:40.193Z,99605.91
2022-10-26T20:54:01.762Z,99606.22
2022-10-26T20:56:29.774Z,99607.56
2022-10-26T20:58:58.467Z,99619.13
2022-10-26T21:01:26.987Z,99615.94
2022-10-26T21:03:55.646Z,99614.97
2022-10-26T21:06:23.561Z,99619.97
2022-10-26T21:08:54.739Z,99626.44
2022-10-26T21:11:23.310Z,99623.31
2022-10-26T21:13:52.941Z,99624.50
2022-10-26T21:18:46.933Z,99619.63
2022-10-26T21:21:14.304Z,99614.63
2022-10-26T21:23:41.449Z,99611.19
2022-10-26T21:26:09.118Z,99610.59
2022-10-26T21:28:38.372Z,99604.63
2022-10-26T21:31:06.730Z,99605.34
2022-10-26T21:33:33.999Z,99608.44
2022-10-26T21:36:02.263Z,99603.75
2022-10-26T21:38:30.314Z,99602.44
2022-10-26T21:41:04.867Z,99604.34
2022-10-26T21:43:33.096Z,99603.16
2022-10-26T21:46:03.469Z,99604.09
2022-10-26T21:48:31.835Z,99602.47
2022-10-26T21:51:01.597Z,99601.50
2022-10-26T21:53:28.754Z,99599.72
2022-10-26T21:56:02.551Z,99608.44
2022-10-26T21:58:30.475Z,99609.50
2022-10-26T22:01:10.613Z,99607.38
2022-10-26T22:03:39.254Z,99604.16
2022-10-26T22:06:07.952Z,99594.63
2022-10-26T22:08:35.813Z,99604.16
2022-10-26T22:11:15.142Z,99604.75
2022-10-26T22:13:43.987Z,99600.09
2022-10-26T22:16:14.101Z,99605.56
2022-10-26T22:18:45.404Z,99608.94
2022-10-26T22:21:14.244Z,99610.94
2022-10-26T22:23:42.615Z,99604.75
2022-10-26T22:26:14.800Z,99607.50
2022-10-26T22:28:43.956Z,99622.50
2022-10-26T22:31:13.705Z,99613.44
2022-10-26T22:33:41.623Z,99612.25
2022-10-26T22:36:12.340Z,99615.94
2022-10-26T22:38:39.657Z,99623.25
2022-10-26T22:41:07.174Z,99619.87
2022-10-26T22:43:34.519Z,99626.13
2022-10-26T22:46:06.560Z,99629.31
2022-10-26T22:48:34.353Z,99638.25
2022-10-26T22:51:20.836Z,99631.00
2022-10-26T22:53:53.000Z,99636.25
2022-10-26T22:56:20.946Z,99636.81
2022-10-26T22:58:47.951Z,99635.28
2022-10-26T23:01:17.797Z,99638.13
2022-10-26T23:03:45.570Z,99637.91
2022-10-26T23:06:18.224Z,99639.81
2022-10-26T23:08:45.637Z,99646.62
2022-10-26T23:11:14.750Z,99639.94
2022-10-26T23:13:41.814Z,99648.75
2022-10-26T23:16:10.804Z,99659.75
2022-10-26T23:18:38.389Z,99649.50
2022-10-26T23:21:06.797Z,99659.63
2022-10-26T23:23:35.044Z,99661.19
2022-10-26T23:26:09.973Z,99657.25
2022-10-26T23:28:37.258Z,99658.06
2022-10-26T23:31:04.482Z,99663.56
2022-10-26T23:33:32.121Z,99658.19
2022-10-26T23:35:59.501Z,99663.31
2022-10-26T23:38:26.595Z,99665.25
2022-10-26T23:40:58.246Z,99666.66
2022-10-26T23:43:26.764Z,99658.69
2022-10-26T23:45:54.802Z,99662.50
2022-10-26T23:48:22.300Z,99669.62
2022-10-26T23:50:50.812Z,99667.84
2022-10-26T23:53:20.992Z,99665.59
2022-10-26T23:55:48.299Z,99673.13
2022-10-26T23:58:16.353Z,99671.34
